Time;durP1;ratioP1;P1;durP2;ratioP2;P2;SDS_P1;SDS_P2;PMS_P1;PMS_P2;Temp;Humidity;BMP_temperature;BMP_pressure;BME280_temperature;BME280_humidity;BME280_pressure;Samples;Min_cycle;Max_cycle;Signal;HPM_P1;HPM_P2
2022/10/01 00:01:59;;;;;;;;;;;10.30;67.80;;;5.89;100.00;95451.22;4972297;28;20322;-46
2022/10/01 00:04:27;;;;;;;;;;;10.40;67.80;;;5.95;100.00;95451.13;4975273;28;19916;-46
2022/10/01 00:06:52;;;;;;;;;;;10.50;67.80;;;6.04;100.00;95448.88;5007406;28;20360;-46
2022/10/01 00:09:19;;;;;;;;;;;10.50;67.80;;;6.12;100.00;95445.06;5007314;28;19913;-49
2022/10/01 00:11:44;;;;;;;;;;;10.60;67.90;;;6.14;100.00;95443.78;5004570;28;19914;-49
2022/10/01 00:14:10;;;;;;;;;;;10.70;67.80;;;6.17;100.00;95455.72;5007427;28;19936;-46
2022/10/01 00:16:39;;;;;;;;;;;10.70;68.50;;;6.21;100.00;95447.06;4990445;28;20531;-48
2022/10/01 00:19:04;;;;;;;;;;;10.70;67.60;;;6.24;100.00;95445.78;4987333;28;20013;-47
2022/10/01 00:21:32;;;;;;;;;;;10.80;67.60;;;6.23;100.00;95444.97;4984687;28;20012;-48
2022/10/01 00:24:05;;;;;;;;;;;10.80;67.50;;;6.20;100.00;95442.00;4975188;28;19913;-46
2022/10/01 00:26:36;;;;;;;;;;;10.80;67.50;;;6.15;100.00;95442.75;4970443;28;19992;-50
2022/10/01 00:29:13;;;;;;;;;;;10.80;67.40;;;6.10;100.00;95440.00;4970824;28;19909;-46
2022/10/01 00:31:39;;;;;;;;;;;10.70;67.30;;;6.05;100.00;95434.66;4970801;28;20004;-47
2022/10/01 00:34:12;;;;;;;;;;;10.70;67.30;;;6.03;100.00;95436.72;4970388;28;19922;-49
2022/10/01 00:36:41;;;;;;;;;;;10.70;67.40;;;6.01;100.00;95430.84;4996247;28;20371;-48
2022/10/01 00:39:10;;;;;;;;;;;10.70;67.40;;;6.01;100.00;95429.00;5009756;28;20030;-52
2022/10/01 00:41:40;;;;;;;;;;;10.70;67.50;;;6.01;100.00;95436.13;5015942;28;19932;-46
2022/10/01 00:44:28;;;;;;;;;;;10.60;68.30;;;5.98;100.00;95447.19;5008956;28;20338;-52
2022/10/01 00:47:26;;;;;;;;;;;10.60;67.50;;;5.95;100.00;95443.19;4989610;28;19987;-52
2022/10/01 00:50:06;;;;;;;;;;;10.60;67.50;;;5.91;100.00;95433.31;5016089;28;20059;-46
2022/10/01 00:52:35;;;;;;;;;;;10.60;67.60;;;5.86;100.00;95435.84;5006198;28;19909;-46
2022/10/01 00:55:17;;;;;;;;;;;10.50;67.50;;;5.83;100.00;95438.97;5009536;28;20028;-46
2022/10/01 00:57:46;;;;;;;;;;;10.50;67.60;;;5.78;100.00;95437.06;5009840;28;19928;-46
2022/10/01 01:00:17;;;;;;;;;;;10.50;67.60;;;5.75;100.00;95438.31;4997549;28;19913;-46
2022/10/01 01:02:43;;;;;;;;;;;10.40;67.60;;;5.73;100.00;95429.03;5008889;28;19909;-48
2022/10/01 01:05:12;;;;;;;;;;;10.40;67.70;;;5.72;100.00;95427.44;4990066;28;20400;-48
2022/10/01 01:07:47;;;;;;;;;;;10.40;67.70;;;5.68;100.00;95435.03;5004214;28;19910;-46
2022/10/01 01:10:18;;;;;;;;;;;10.40;67.70;;;5.66;100.00;95442.38;4998730;28;19909;-48
2022/10/01 01:13:20;;;;;;;;;;;10.30;67.70;;;5.61;100.00;95436.19;4996765;28;19909;-52
2022/10/01 01:16:26;;;;;;;;;;;10.30;67.70;;;5.55;100.00;95444.03;5000152;28;19972;-46
2022/10/01 01:19:21;;;;;;;;;;;10.30;67.80;;;5.54;100.00;95428.41;5017754;28;20003;-47
2022/10/01 01:22:00;;;;;;;;;;;10.20;67.80;;;5.54;100.00;95408.06;5010863;28;19971;-48
2022/10/01 01:24:47;;;;;;;;;;;10.20;67.90;;;5.56;100.00;95432.44;4989924;28;19963;-48
2022/10/01 01:27:34;;;;;;;;;;;10.20;68.00;;;5.65;100.00;95429.41;5011089;28;19915;-46
2022/10/01 01:30:13;;;;;;;;;;;10.20;68.20;;;5.66;100.00;95418.59;5006335;28;19955;-46
2022/10/01 01:33:03;;;;;;;;;;;10.20;68.20;;;5.64;100.00;95423.34;5010673;28;19913;-47
2022/10/01 01:36:03;;;;;;;;;;;10.20;68.30;;;5.61;100.00;95428.28;4979363;28;19953;-46
2022/10/01 01:38:43;;;;;;;;;;;10.20;68.20;;;5.60;100.00;95424.03;5008010;28;19916;-46
2022/10/01 01:41:14;;;;;;;;;;;10.20;68.20;;;5.63;100.00;95434.13;4982842;28;20390;-46
2022/10/01 01:43:47;;;;;;;;;;;10.20;68.30;;;5.64;100.00;95438.38;5009369;28;20367;-46
2022/10/01 01:46:16;;;;;;;;;;;10.20;68.30;;;5.64;100.00;95449.75;5005202;28;19948;-48
2022/10/01 01:48:49;;;;;;;;;;;10.20;68.30;;;5.62;100.00;95445.75;5016413;28;20280;-50
2022/10/01 01:51:47;;;;;;;;;;;10.20;68.10;;;5.61;100.00;95458.16;5013147;28;19909;-49
2022/10/01 01:54:16;;;;;;;;;;;10.20;68.20;;;5.59;100.00;95441.72;5024236;28;19916;-46
2022/10/01 01:56:42;;;;;;;;;;;10.20;68.20;;;5.55;100.00;95435.31;5012439;28;19915;-46
2022/10/01 01:59:09;;;;;;;;;;;10.20;68.10;;;5.55;100.00;95438.75;5003956;28;19944;-48
2022/10/01 02:01:41;;;;;;;;;;;10.20;68.10;;;5.60;100.00;95439.88;5012706;28;19917;-46
2022/10/01 02:04:26;;;;;;;;;;;10.20;68.10;;;5.63;100.00;95440.22;5010232;28;19913;-46
2022/10/01 02:07:30;;;;;;;;;;;10.20;68.30;;;5.70;100.00;95430.31;4999184;28;19933;-46
2022/10/01 02:10:39;;;;;;;;;;;10.30;68.50;;;5.74;100.00;95418.22;5020017;28;19918;-48
2022/10/01 02:13:50;;;;;;;;;;;10.30;68.40;;;5.78;100.00;95415.91;4994080;28;19913;-48
2022/10/01 02:17:00;;;;;;;;;;;10.30;68.40;;;5.78;100.00;95421.19;4990229;28;19913;-46
2022/10/01 02:19:50;;;;;;;;;;;10.40;68.40;;;5.80;100.00;95414.63;4983330;28;20288;-50
2022/10/01 02:22:39;;;;;;;;;;;10.40;68.40;;;5.80;100.00;95413.84;5009682;28;19917;-47
2022/10/01 02:25:11;;;;;;;;;;;10.40;68.40;;;5.77;100.00;95399.25;4998304;28;20442;-53
2022/10/01 02:28:09;;;;;;;;;;;10.40;68.40;;;5.73;100.00;95399.94;5012661;28;19921;-46
2022/10/01 02:30:45;;;;;;;;;;;10.40;68.30;;;5.72;100.00;95401.78;4988169;28;20430;-46
2022/10/01 02:33:22;;;;;;;;;;;10.40;68.40;;;5.77;100.00;95404.53;5033818;23;20645;-48
2022/10/01 02:35:52;;;;;;;;;;;10.40;68.40;;;5.79;100.00;95396.34;5044214;28;19916;-45
2022/10/01 02:38:25;;;;;;;;;;;10.40;68.40;;;5.77;100.00;95396.59;5035255;28;19911;-45
2022/10/01 02:40:59;;;;;;;;;;;10.40;68.50;;;5.73;100.00;95390.16;5064577;28;19918;-45
2022/10/01 02:43:37;;;;;;;;;;;10.40;68.40;;;5.75;100.00;95389.94;5052182;28;19915;-45
2022/10/01 02:46:29;;;;;;;;;;;10.40;68.50;;;5.73;100.00;95386.72;5052098;28;19912;-55
2022/10/01 02:48:56;;;;;;;;;;;10.40;68.40;;;5.75;100.00;95395.22;5020853;28;19909;-45
2022/10/01 02:51:53;;;;;;;;;;;10.40;68.40;;;5.74;100.00;95391.00;5050400;28;20293;-47
2022/10/01 02:54:55;;;;;;;;;;;10.40;68.50;;;5.73;100.00;95392.81;5031628;28;19908;-46
2022/10/01 02:57:23;;;;;;;;;;;10.40;68.60;;;5.72;100.00;95390.41;5053269;28;19918;-46
2022/10/01 02:59:56;;;;;;;;;;;10.40;68.60;;;5.73;100.00;95392.00;5027806;28;19948;-45
2022/10/01 03:02:30;;;;;;;;;;;10.50;68.70;;;5.74;100.00;95383.06;5035828;28;19916;-45
2022/10/01 03:04:56;;;;;;;;;;;10.50;68.80;;;5.76;100.00;95383.63;5044075;28;19915;-46
2022/10/01 03:07:24;;;;;;;;;;;10.50;68.70;;;5.75;100.00;95387.31;5029338;28;19978;-45
2022/10/01 03:09:50;;;;;;;;;;;10.50;68.60;;;5.77;100.00;95387.88;5044028;28;20366;-49
2022/10/01 03:12:17;;;;;;;;;;;10.50;68.60;;;5.75;100.00;95377.53;5050448;28;19915;-46
2022/10/01 03:14:44;;;;;;;;;;;10.50;68.50;;;5.78;100.00;95376.25;5034224;28;20370;-50
2022/10/01 03:17:12;;;;;;;;;;;10.50;68.50;;;5.78;100.00;95369.13;5041605;28;19912;-48
2022/10/01 03:19:41;;;;;;;;;;;10.50;68.50;;;5.81;100.00;95367.84;5053322;28;20007;-45
2022/10/01 03:22:08;;;;;;;;;;;10.50;68.50;;;5.84;100.00;95367.38;5033160;28;20290;-50
2022/10/01 03:24:45;;;;;;;;;;;10.50;68.60;;;5.86;100.00;95365.28;5022942;28;19908;-49
2022/10/01 03:27:11;;;;;;;;;;;10.50;68.60;;;5.87;100.00;95374.03;5032907;28;20362;-46
2022/10/01 03:29:43;;;;;;;;;;;10.50;68.60;;;5.86;100.00;95381.16;5048822;28;20296;-49
2022/10/01 03:32:09;;;;;;;;;;;10.50;68.70;;;5.83;100.00;95372.88;5051830;28;19908;-44
2022/10/01 03:34:35;;;;;;;;;;;10.50;68.60;;;5.79;100.00;95373.34;5011405;28;19951;-50
2022/10/01 03:37:01;;;;;;;;;;;10.50;69.40;;;5.80;100.00;95376.81;5043582;28;19908;-48
2022/10/01 03:39:30;;;;;;;;;;;10.50;68.60;;;5.77;100.00;95380.75;5017494;28;19913;-44
2022/10/01 03:41:56;;;;;;;;;;;10.50;68.60;;;5.73;100.00;95382.25;5009630;28;19917;-50
2022/10/01 03:44:22;;;;;;;;;;;10.40;68.50;;;5.66;100.00;95378.97;5032092;28;19920;-44
2022/10/01 03:46:48;;;;;;;;;;;10.40;68.50;;;5.64;100.00;95380.22;5007987;28;19909;-46
2022/10/01 03:49:16;;;;;;;;;;;10.40;69.30;;;5.63;100.00;95383.91;5038781;28;19909;-48
2022/10/01 03:51:48;;;;;;;;;;;10.40;68.60;;;5.61;100.00;95386.81;5050194;28;19941;-46
2022/10/01 03:54:18;;;;;;;;;;;10.40;68.70;;;5.61;100.00;95386.81;5028558;28;19908;-45
2022/10/01 03:56:47;;;;;;;;;;;10.40;68.70;;;5.60;100.00;95384.41;5050061;28;19943;-45
2022/10/01 03:59:16;;;;;;;;;;;10.40;68.70;;;5.66;100.00;95392.16;5032442;28;19955;-46
2022/10/01 04:01:45;;;;;;;;;;;10.40;68.70;;;5.71;100.00;95389.63;5051178;28;19916;-44
2022/10/01 04:04:17;;;;;;;;;;;10.40;68.80;;;5.73;100.00;95397.31;5048990;28;19967;-46
2022/10/01 04:06:42;;;;;;;;;;;10.40;68.80;;;5.72;100.00;95390.41;5040735;28;19965;-48
2022/10/01 04:09:11;;;;;;;;;;;10.40;68.80;;;5.69;100.00;95386.41;5037426;28;19909;-44
2022/10/01 04:11:43;;;;;;;;;;;10.40;68.80;;;5.67;100.00;95383.22;5048612;28;19962;-48
2022/10/01 04:14:15;;;;;;;;;;;10.30;68.80;;;5.65;100.00;95385.28;5049911;28;19912;-45
2022/10/01 04:16:40;;;;;;;;;;;10.30;68.80;;;5.71;100.00;95384.34;5039750;28;19913;-46
2022/10/01 04:19:12;;;;;;;;;;;10.30;69.10;;;5.83;100.00;95386.91;5049456;28;19912;-48
2022/10/01 04:21:47;;;;;;;;;;;10.40;69.20;;;5.93;100.00;95392.41;5020770;28;19979;-50
2022/10/01 04:24:18;;;;;;;;;;;10.40;69.40;;;6.02;100.00;95398.91;5039197;28;20382;-47
2022/10/01 04:26:52;;;;;;;;;;;10.50;69.60;;;6.14;100.00;95392.72;5050131;28;19908;-46
2022/10/01 04:29:17;;;;;;;;;;;10.50;69.60;;;6.17;100.00;95398.34;5039709;28;19952;-48
2022/10/01 04:31:43;;;;;;;;;;;10.60;69.80;;;6.19;100.00;95388.31;5045783;28;19943;-49
2022/10/01 04:34:09;;;;;;;;;;;10.60;69.70;;;6.20;100.00;95400.47;5048482;28;20203;-49
2022/10/01 04:36:41;;;;;;;;;;;10.70;69.70;;;6.22;100.00;95395.75;5022385;28;19918;-46
2022/10/01 04:39:15;;;;;;;;;;;10.70;69.60;;;6.23;100.00;95391.28;5050818;28;20018;-46
2022/10/01 04:41:41;;;;;;;;;;;10.70;69.50;;;6.28;100.00;95391.34;5040851;28;19951;-47
2022/10/01 04:44:15;;;;;;;;;;;10.80;69.60;;;6.30;100.00;95397.22;5050926;28;19946;-48
2022/10/01 04:46:47;;;;;;;;;;;10.80;69.50;;;6.34;100.00;95400.97;5039860;28;20031;-46
2022/10/01 04:49:16;;;;;;;;;;;10.80;69.50;;;6.35;100.00;95397.28;5037610;28;19943;-48
2022/10/01 04:51:41;;;;;;;;;;;10.90;69.60;;;6.35;100.00;95399.91;5032592;28;19946;-46
2022/10/01 04:54:07;;;;;;;;;;;10.90;69.50;;;6.39;100.00;95400.22;5046348;28;19952;-47
2022/10/01 04:56:33;;;;;;;;;;;10.90;69.60;;;6.41;100.00;95398.94;5032437;28;19999;-50
2022/10/01 04:59:04;;;;;;;;;;;10.90;69.50;;;6.40;100.00;95417.72;5018939;28;20176;-47
2022/10/01 05:01:33;;;;;;;;;;;11.00;69.60;;;6.43;100.00;95423.34;5015887;28;20309;-45
2022/10/01 05:04:05;;;;;;;;;;;11.00;69.50;;;6.45;100.00;95423.06;5049138;28;19915;-46
2022/10/01 05:06:30;;;;;;;;;;;11.00;69.50;;;6.46;100.00;95433.44;5020544;28;19915;-45
2022/10/01 05:08:56;;;;;;;;;;;11.10;69.60;;;6.47;100.00;95432.38;5037265;28;19909;-46
2022/10/01 05:11:22;;;;;;;;;;;11.10;69.70;;;6.51;100.00;95432.69;5035849;28;19920;-47
2022/10/01 05:13:48;;;;;;;;;;;11.10;69.60;;;6.53;100.00;95427.97;5032434;28;19912;-46
2022/10/01 05:16:13;;;;;;;;;;;11.10;69.60;;;6.54;100.00;95437.50;5020893;28;19909;-47
2022/10/01 05:18:39;;;;;;;;;;;11.10;69.60;;;6.57;100.00;95434.38;5044475;28;19912;-49
2022/10/01 05:21:20;;;;;;;;;;;11.20;69.70;;;6.62;100.00;95438.97;5044305;28;20035;-47
2022/10/01 05:23:46;;;;;;;;;;;11.20;69.70;;;6.65;100.00;95435.81;5022423;28;19920;-48
2022/10/01 05:26:12;;;;;;;;;;;11.30;69.80;;;6.69;100.00;95431.63;5038848;28;19912;-47
2022/10/01 05:28:43;;;;;;;;;;;11.30;69.70;;;6.75;100.00;95422.72;5026733;28;19908;-45
2022/10/01 05:31:10;;;;;;;;;;;11.40;69.80;;;6.77;100.00;95411.88;5039458;28;19908;-50
2022/10/01 05:33:40;;;;;;;;;;;11.40;69.80;;;6.79;100.00;95409.81;5035056;28;19920;-48
2022/10/01 05:36:06;;;;;;;;;;;11.40;69.80;;;6.81;100.00;95421.75;4981643;28;19966;-46
2022/10/01 05:38:36;;;;;;;;;;;11.40;69.80;;;6.85;100.00;95424.72;5047346;28;20342;-47
2022/10/01 05:41:03;;;;;;;;;;;11.50;69.90;;;6.86;100.00;95415.72;5020348;28;19920;-47
2022/10/01 05:43:32;;;;;;;;;;;11.50;69.90;;;6.91;100.00;95416.59;5010070;28;20283;-46
2022/10/01 05:46:09;;;;;;;;;;;11.50;70.00;;;6.94;100.00;95417.94;5025634;28;19908;-46
2022/10/01 05:48:37;;;;;;;;;;;11.60;70.10;;;6.98;100.00;95427.00;5027718;28;20359;-47
2022/10/01 05:51:15;;;;;;;;;;;11.60;70.20;;;7.04;100.00;95426.00;5028983;28;19909;-45
2022/10/01 05:53:40;;;;;;;;;;;11.70;70.40;;;7.11;100.00;95431.13;5036482;28;19967;-46
2022/10/01 05:56:06;;;;;;;;;;;11.70;70.40;;;7.13;100.00;95426.41;5022234;28;19908;-48
2022/10/01 05:58:35;;;;;;;;;;;11.80;70.50;;;7.14;100.00;95418.19;5033157;28;20474;-50
2022/10/01 06:01:07;;;;;;;;;;;11.80;70.40;;;7.16;100.00;95415.31;5041598;28;19917;-48
2022/10/01 06:03:37;;;;;;;;;;;11.90;70.40;;;7.16;100.00;95425.91;5027209;28;20003;-48
2022/10/01 06:06:04;;;;;;;;;;;11.90;70.40;;;7.17;100.00;95422.19;5020734;28;19909;-46
2022/10/01 06:08:39;;;;;;;;;;;11.90;70.40;;;7.21;100.00;95417.19;5026833;28;20019;-49
2022/10/01 06:11:05;;;;;;;;;;;11.90;70.30;;;7.24;100.00;95422.84;4929611;28;22317;-51
2022/10/01 06:13:30;;;;;;;;;;;11.90;70.30;;;7.28;100.00;95428.44;5034994;28;20412;-49
2022/10/01 06:15:56;;;;;;;;;;;12.00;70.30;;;7.29;100.00;95424.72;5026637;28;19915;-46
2022/10/01 06:18:22;;;;;;;;;;;12.00;70.30;;;7.34;100.00;95433.53;5011972;28;19912;-51
2022/10/01 06:20:48;;;;;;;;;;;12.10;70.30;;;7.38;100.00;95432.00;5023608;28;19924;-47
2022/10/01 06:23:17;;;;;;;;;;;12.10;70.30;;;7.39;100.00;95428.28;5028996;28;19991;-46
2022/10/01 06:25:43;;;;;;;;;;;12.10;70.30;;;7.42;100.00;95433.09;5049414;28;19909;-46
2022/10/01 06:28:13;;;;;;;;;;;12.10;70.30;;;7.46;100.00;95430.78;5048172;28;20044;-52
2022/10/01 06:30:45;;;;;;;;;;;12.20;70.30;;;7.49;100.00;95424.16;5021231;28;20345;-50
2022/10/01 06:33:14;;;;;;;;;;;12.20;70.30;;;7.51;100.00;95424.72;5032348;28;20058;-46
2022/10/01 06:35:50;;;;;;;;;;;12.30;70.40;;;7.52;100.00;95421.81;5025607;28;20389;-46
2022/10/01 06:38:20;;;;;;;;;;;12.30;70.30;;;7.59;100.00;95432.22;5042476;28;19908;-45
2022/10/01 06:40:53;;;;;;;;;;;12.30;70.30;;;7.61;100.00;95428.25;5029458;28;19936;-53
2022/10/01 06:43:24;;;;;;;;;;;12.30;70.30;;;7.65;100.00;95423.28;5035760;28;19916;-49
2022/10/01 06:45:50;;;;;;;;;;;12.40;70.20;;;7.68;100.00;95429.91;5026667;28;20286;-47
2022/10/01 06:48:19;;;;;;;;;;;12.40;70.90;;;7.67;100.00;95412.41;5014228;28;19909;-47
2022/10/01 06:50:47;;;;;;;;;;;12.40;70.10;;;7.70;100.00;95412.72;5038645;28;19915;-45
2022/10/01 06:53:16;;;;;;;;;;;12.50;70.10;;;7.75;100.00;95419.94;5024928;28;20276;-47
2022/10/01 06:55:43;;;;;;;;;;;12.50;70.10;;;7.79;100.00;95418.38;5032441;28;20346;-54
2022/10/01 06:58:15;;;;;;;;;;;12.60;70.20;;;7.78;100.00;95417.56;5032343;28;19915;-54
2022/10/01 07:00:49;;;;;;;;;;;12.60;70.10;;;7.78;100.00;95416.78;5030025;28;19951;-46
2022/10/01 07:03:19;;;;;;;;;;;12.60;70.10;;;7.82;100.00;95417.88;5035408;28;19908;-46
2022/10/01 07:05:47;;;;;;;;;;;12.60;70.10;;;7.85;100.00;95414.72;5023484;28;19936;-47
2022/10/01 07:08:13;;;;;;;;;;;12.70;70.20;;;7.93;100.00;95408.97;5024344;28;19913;-44
2022/10/01 07:10:44;;;;;;;;;;;12.70;70.20;;;7.96;100.00;95408.47;5043579;28;20711;-44
2022/10/01 07:13:15;;;;;;;;;;;12.80;70.30;;;8.02;100.00;95414.59;5043233;28;19912;-47
2022/10/01 07:15:47;;;;;;;;;;;12.90;70.30;;;8.08;100.00;95418.91;5029718;28;19958;-45
2022/10/01 07:18:13;;;;;;;;;;;12.90;70.30;;;8.10;99.23;95416.78;5007394;28;19913;-49
2022/10/01 07:20:42;;;;;;;;;;;12.90;70.30;;;8.16;96.62;95418.44;5048670;28;19950;-49
2022/10/01 07:23:14;;;;;;;;;;;13.00;70.30;;;8.25;96.61;95416.13;5017930;28;19913;-45
2022/10/01 07:25:49;;;;;;;;;;;13.10;70.30;;;8.35;95.17;95413.56;5008257;28;19920;-45
2022/10/01 07:28:18;;;;;;;;;;;13.10;70.30;;;8.41;94.19;95415.22;5033919;28;19908;-49
2022/10/01 07:31:10;;;;;;;;;;;13.20;70.20;;;8.47;93.42;95419.50;5022932;28;20294;-46
2022/10/01 07:33:40;;;;;;;;;;;13.20;70.00;;;8.52;94.93;95413.41;5052074;28;19966;-45
2022/10/01 07:36:09;;;;;;;;;;;13.20;70.00;;;8.54;94.07;95408.66;5014325;28;19913;-46
2022/10/01 07:38:39;;;;;;;;;;;13.30;69.90;;;8.57;94.25;95416.91;5050790;28;19919;-46
2022/10/01 07:41:05;;;;;;;;;;;13.30;69.80;;;8.60;94.56;95405.00;5042884;28;20393;-46
2022/10/01 07:43:35;;;;;;;;;;;13.30;69.80;;;8.61;95.05;95403.94;5050781;28;19958;-46
2022/10/01 07:46:03;;;;;;;;;;;13.30;69.70;;;8.57;93.39;95408.94;5033229;28;20306;-47
2022/10/01 07:48:38;;;;;;;;;;;13.30;69.70;;;8.63;94.24;95409.78;5015043;28;19909;-45
2022/10/01 07:51:04;;;;;;;;;;;13.40;69.60;;;8.65;94.09;95412.19;5045814;28;19909;-46
2022/10/01 07:53:39;;;;;;;;;;;13.40;69.50;;;8.71;93.54;95408.50;5031699;28;20420;-45
2022/10/01 07:56:05;;;;;;;;;;;13.50;69.50;;;8.74;93.75;95406.16;5049961;28;20378;-46
2022/10/01 07:58:35;;;;;;;;;;;13.50;69.40;;;8.82;94.21;95409.38;5049108;28;19912;-48
2022/10/01 08:01:24;;;;;;;;;;;13.60;69.40;;;8.88;94.49;95411.78;5047235;28;20335;-46
2022/10/01 08:03:51;;;;;;;;;;;13.70;69.30;;;8.88;92.60;95411.78;5051800;28;19908;-55
2022/10/01 08:06:19;;;;;;;;;;;13.70;69.20;;;8.91;93.59;95413.94;5036731;28;19981;-48
2022/10/01 08:08:46;;;;;;;;;;;13.70;69.20;;;8.95;93.89;95411.56;5021221;28;19916;-44
2022/10/01 08:11:16;;;;;;;;;;;13.80;69.10;;;8.94;94.54;95408.09;5031767;28;19913;-46
2022/10/01 08:13:45;;;;;;;;;;;13.90;69.00;;;9.03;94.82;95413.75;5051408;28;19920;-45
2022/10/01 08:16:11;;;;;;;;;;;13.90;69.00;;;9.05;94.39;95416.91;5027787;28;19909;-53
2022/10/01 08:18:43;;;;;;;;;;;13.90;68.90;;;9.04;94.56;95408.16;5015280;28;19913;-47
2022/10/01 08:21:09;;;;;;;;;;;13.90;68.80;;;9.09;95.17;95420.69;5033140;28;19916;-49
2022/10/01 08:23:35;;;;;;;;;;;14.00;68.80;;;9.13;94.73;95419.09;5024627;28;20278;-45
2022/10/01 08:26:06;;;;;;;;;;;14.00;68.70;;;9.11;95.49;95421.19;5049709;28;20397;-47
2022/10/01 08:28:35;;;;;;;;;;;14.10;68.70;;;9.18;94.90;95418.31;5029369;28;19979;-45
2022/10/01 08:31:08;;;;;;;;;;;14.10;68.70;;;9.22;94.15;95412.22;5033309;28;20003;-48
2022/10/01 08:33:36;;;;;;;;;;;14.10;68.70;;;9.31;94.85;95417.03;5041700;22;19919;-45
2022/10/01 08:36:08;;;;;;;;;;;14.10;68.60;;;9.33;94.02;95415.72;5022257;28;19973;-45
2022/10/01 08:38:39;;;;;;;;;;;14.20;68.60;;;9.35;94.07;95410.94;5029798;28;19908;-45
2022/10/01 08:42:04;;;;;;;;;;;14.20;68.50;;;9.41;94.59;95401.94;5021803;28;19962;-44
2022/10/01 08:44:44;;;;;;;;;;;14.20;68.50;;;9.27;92.72;95403.47;5030374;28;19922;-44
2022/10/01 08:47:51;;;;;;;;;;;14.20;68.40;;;9.36;93.70;95399.25;4997584;28;20346;-46
2022/10/01 08:50:45;;;;;;;;;;;14.20;68.30;;;9.39;94.15;95404.03;5002260;28;19948;-44
2022/10/01 08:53:30;;;;;;;;;;;14.20;68.30;;;9.40;93.31;95412.81;5009359;28;19991;-45
2022/10/01 08:55:59;;;;;;;;;;;14.20;68.30;;;9.47;94.62;95410.72;5030383;28;19909;-44
2022/10/01 08:58:42;;;;;;;;;;;14.20;68.30;;;9.57;94.62;95409.94;5009372;28;20322;-45
2022/10/01 09:01:21;;;;;;;;;;;14.20;68.40;;;9.57;93.58;95410.75;5028117;28;19912;-44
2022/10/01 09:03:48;;;;;;;;;;;14.30;68.40;;;9.59;93.56;95419.28;4986912;28;19909;-45
2022/10/01 09:06:27;;;;;;;;;;;14.30;68.30;;;9.66;92.99;95416.38;4996408;28;20398;-45
2022/10/01 09:09:48;;;;;;;;;;;14.40;68.30;;;9.71;92.86;95411.84;5006683;28;19908;-45
2022/10/01 09:12:45;;;;;;;;;;;14.50;68.20;;;9.80;94.00;95414.00;5010759;28;19939;-46
2022/10/01 09:16:06;;;;;;;;;;;14.60;68.20;;;9.78;92.57;95416.91;5030744;28;19916;-45
2022/10/01 09:19:06;;;;;;;;;;;14.70;68.10;;;9.85;93.40;95416.66;4953854;28;20023;-47
2022/10/01 09:21:53;;;;;;;;;;;14.80;67.80;;;9.82;91.75;95423.31;5011552;28;20318;-45
2022/10/01 09:24:50;;;;;;;;;;;14.80;67.80;;;9.90;93.81;95425.47;4998940;28;19913;-46
2022/10/01 09:27:39;;;;;;;;;;;14.80;67.70;;;9.82;92.59;95422.50;4994374;28;19970;-46
2022/10/01 09:30:20;;;;;;;;;;;14.80;67.60;;;9.75;91.61;95417.44;4987365;28;20290;-50
2022/10/01 09:33:28;;;;;;;;;;;14.80;67.50;;;9.73;93.02;95420.34;5024159;28;19931;-46
2022/10/01 09:36:36;;;;;;;;;;;14.70;67.30;;;9.75;93.29;95408.69;4927927;29;19919;-47
2022/10/01 09:39:41;;;;;;;;;;;14.70;67.30;;;9.70;93.39;95415.56;4990077;28;20349;-44
2022/10/01 09:42:08;;;;;;;;;;;14.60;67.40;;;9.72;93.43;95418.78;4984804;28;19913;-45
2022/10/01 09:44:35;;;;;;;;;;;14.50;67.50;;;9.68;94.67;95414.22;4995423;28;19909;-45
2022/10/01 09:47:01;;;;;;;;;;;14.50;67.60;;;9.67;94.52;95416.09;4971974;28;20379;-48
2022/10/01 09:49:42;;;;;;;;;;;14.40;67.60;;;9.64;94.93;95421.13;4988668;28;19917;-44
2022/10/01 09:52:32;;;;;;;;;;;14.40;67.70;;;9.65;95.18;95422.72;4989613;28;20418;-46
2022/10/01 09:55:28;;;;;;;;;;;14.40;67.80;;;9.67;94.82;95426.72;4979441;28;19909;-48
2022/10/01 09:58:21;;;;;;;;;;;14.40;68.00;;;9.71;95.07;95429.66;4965346;28;19962;-45
2022/10/01 10:00:59;;;;;;;;;;;14.40;68.00;;;9.65;94.70;95436.84;4982133;28;19964;-49
2022/10/01 10:03:30;;;;;;;;;;;14.40;68.10;;;9.71;95.41;95434.97;4989599;28;19921;-48
2022/10/01 10:05:59;;;;;;;;;;;14.40;68.00;;;9.73;95.36;95438.19;4981685;28;19913;-44
2022/10/01 10:08:38;;;;;;;;;;;14.40;68.00;;;9.76;95.25;95428.88;4973541;28;19909;-45
2022/10/01 10:11:23;;;;;;;;;;;14.50;68.10;;;9.76;94.53;95444.84;4984218;28;19910;-45
2022/10/01 10:13:54;;;;;;;;;;;14.50;68.00;;;9.77;95.06;95441.91;4991249;28;20096;-45
2022/10/01 10:16:45;;;;;;;;;;;14.50;68.00;;;9.75;94.56;95449.38;4991772;28;19956;-52
2022/10/01 10:19:26;;;;;;;;;;;14.60;68.00;;;9.86;94.33;95444.84;4977491;28;20334;-50
2022/10/01 10:22:08;;;;;;;;;;;14.70;68.00;;;9.86;94.65;95443.00;4992456;28;19921;-46
2022/10/01 10:24:36;;;;;;;;;;;14.80;67.90;;;9.92;94.20;95439.28;4985214;28;19909;-45
2022/10/01 10:27:25;;;;;;;;;;;14.80;67.80;;;9.90;93.49;95440.59;4984610;28;19910;-45
2022/10/01 10:30:13;;;;;;;;;;;14.90;67.80;;;9.94;93.59;95447.00;4978522;28;19909;-51
2022/10/01 10:32:41;;;;;;;;;;;14.90;67.70;;;10.02;93.64;95446.47;5009009;28;19958;-46
2022/10/01 10:35:21;;;;;;;;;;;14.90;67.60;;;10.03;92.66;95458.75;4932511;28;25190;-47
2022/10/01 10:37:56;;;;;;;;;;;15.00;67.70;;;10.05;92.40;95447.81;4995067;28;19909;-45
2022/10/01 10:40:46;;;;;;;;;;;14.90;67.60;;;10.05;91.45;95447.81;5009800;28;19913;-48
2022/10/01 10:43:47;;;;;;;;;;;14.90;67.50;;;10.06;91.62;95454.72;5008093;28;20350;-47
2022/10/01 10:46:21;;;;;;;;;;;14.90;67.50;;;10.12;91.43;95461.66;5012434;28;19915;-47
2022/10/01 10:49:14;;;;;;;;;;;14.90;67.50;;;10.04;90.20;95459.53;4995872;28;19936;-47
2022/10/01 10:51:53;;;;;;;;;;;14.90;67.40;;;10.13;90.06;95468.59;5012448;28;20379;-45
2022/10/01 10:54:41;;;;;;;;;;;15.00;67.30;;;10.13;89.98;95468.59;5017741;28;19914;-46
2022/10/01 10:57:32;;;;;;;;;;;15.00;67.20;;;10.10;88.91;95469.94;5011800;28;19916;-46
2022/10/01 11:00:28;;;;;;;;;;;15.00;67.20;;;10.15;91.50;95477.09;4978624;28;19953;-46
2022/10/01 11:03:05;;;;;;;;;;;15.00;66.90;;;10.12;91.46;95456.34;5003443;28;19940;-47
2022/10/01 11:05:40;;;;;;;;;;;15.00;66.90;;;10.11;92.18;95462.72;5005394;28;20290;-47
2022/10/01 11:08:12;;;;;;;;;;;14.90;66.90;;;10.15;91.81;95461.97;4979433;28;19940;-52
2022/10/01 11:11:13;;;;;;;;;;;14.90;67.00;;;10.13;91.08;95460.63;4996116;28;19952;-46
2022/10/01 11:14:20;;;;;;;;;;;14.90;67.00;;;10.13;91.02;95465.94;5026891;28;20420;-48
2022/10/01 11:18:00;;;;;;;;;;;14.90;67.00;;;10.20;90.60;95463.81;5007363;28;20387;-47
2022/10/01 11:21:16;;;;;;;;;;;15.00;67.10;;;10.30;90.41;95474.50;4945060;28;19969;-54
2022/10/01 11:24:03;;;;;;;;;;;15.00;67.20;;;10.28;88.23;95479.31;4996703;28;20378;-46
2022/10/01 11:26:56;;;;;;;;;;;15.00;67.20;;;10.37;90.87;95472.38;5010252;28;19913;-46
2022/10/01 11:29:45;;;;;;;;;;;15.00;67.10;;;10.41;90.35;95473.44;4987596;28;19916;-48
2022/10/01 11:32:50;;;;;;;;;;;15.00;67.20;;;10.37;89.40;95469.72;5001079;28;20394;-46
2022/10/01 11:36:19;;;;;;;;;;;15.00;67.10;;;10.38;89.51;95479.31;5021193;28;20057;-47
2022/10/01 11:38:55;;;;;;;;;;;15.00;67.10;;;10.37;89.34;95474.22;5032108;28;19913;-46
2022/10/01 11:41:44;;;;;;;;;;;15.00;67.20;;;10.41;89.24;95470.78;5023023;28;19952;-50
2022/10/01 11:44:49;;;;;;;;;;;15.00;67.20;;;10.40;88.07;95463.06;5009515;28;19913;-48
2022/10/01 11:47:29;;;;;;;;;;;15.00;67.10;;;10.42;89.17;95456.41;5029528;28;19908;-47
2022/10/01 11:50:26;;;;;;;;;;;15.00;67.10;;;10.40;89.74;95477.19;5010464;28;20173;-46
2022/10/01 11:53:11;;;;;;;;;;;15.00;67.10;;;10.42;89.74;95472.38;5014095;28;19909;-46
2022/10/01 11:59:36;;;;;;;;;;;15.00;67.10;;;10.31;88.34;95481.44;5015445;28;19916;-49
2022/10/01 12:02:23;;;;;;;;;;;15.00;67.10;;;10.32;89.08;95482.22;4992693;28;20008;-47
2022/10/01 12:05:15;;;;;;;;;;;14.90;67.00;;;10.31;89.32;95493.94;5027251;28;19917;-54
2022/10/01 12:08:25;;;;;;;;;;;14.90;67.00;;;10.35;90.00;95503.00;5009404;28;19908;-46